createdAt,value
2017-03-26T00:00:34.663Z,1019.3
2017-03-26T00:01:36.491Z,1019.2
2017-03-26T00:02:38.298Z,1019.3
2017-03-26T00:03:40.128Z,1019.3
2017-03-26T00:04:41.945Z,1019.2
2017-03-26T00:05:44.111Z,1019.3
2017-03-26T00:06:45.928Z,1019.3
2017-03-26T00:07:47.732Z,1019.3
2017-03-26T00:08:49.540Z,1019.2
2017-03-26T00:09:51.362Z,1019.2
2017-03-26T00:10:53.175Z,1019.2
2017-03-26T00:11:54.982Z,1019.2
2017-03-26T00:12:57.476Z,1019.2
2017-03-26T00:13:59.296Z,1019.2
2017-03-26T00:15:01.116Z,1019.2
2017-03-26T00:16:03.261Z,1019.2
2017-03-26T00:17:05.073Z,1019.2
2017-03-26T00:18:07.219Z,1019.1
2017-03-26T00:19:09.048Z,1019.1
2017-03-26T00:20:10.869Z,1019.1
2017-03-26T00:21:13.022Z,1019.1
2017-03-26T00:22:15.523Z,1019.1
2017-03-26T00:23:17.329Z,1019.1
2017-03-26T00:24:19.484Z,1019.1
2017-03-26T00:25:21.299Z,1019
2017-03-26T00:26:23.108Z,1019
2017-03-26T00:27:24.925Z,1019
2017-03-26T00:28:26.730Z,1019
2017-03-26T00:29:28.553Z,1019
2017-03-26T00:30:30.360Z,1019
2017-03-26T00:31:32.169Z,1018.9
2017-03-26T00:32:34.000Z,1018.9
2017-03-26T00:33:35.813Z,1018.9
2017-03-26T00:34:37.666Z,1018.9
2017-03-26T00:35:39.474Z,1018.9
2017-03-26T00:36:41.644Z,1018.9
2017-03-26T00:37:43.446Z,1018.9
2017-03-26T00:38:45.617Z,1018.9
2017-03-26T00:39:47.423Z,1018.9
2017-03-26T00:40:49.232Z,1018.9
2017-03-26T00:41:51.045Z,1018.8
2017-03-26T00:42:52.851Z,1018.9
2017-03-26T00:43:55.366Z,1018.9
2017-03-26T00:44:57.516Z,1018.9
2017-03-26T00:45:59.333Z,1018.9
2017-03-26T00:47:01.168Z,1018.9
2017-03-26T00:48:03.033Z,1018.9
2017-03-26T00:49:05.514Z,1018.8
2017-03-26T00:50:07.329Z,1018.9
2017-03-26T00:51:09.135Z,1018.9
2017-03-26T00:52:10.954Z,1018.9
2017-03-26T00:53:13.099Z,1018.8
2017-03-26T00:54:15.597Z,1018.8
2017-03-26T00:55:17.743Z,1018.8
2017-03-26T00:56:19.571Z,1018.8
2017-03-26T00:57:21.385Z,1018.9
2017-03-26T00:58:23.538Z,1018.9
2017-03-26T00:59:26.023Z,1018.8
2017-03-26T01:00:27.846Z,1018.8
2017-03-26T01:01:29.655Z,1018.9
2017-03-26T01:02:31.807Z,1018.9
2017-03-26T01:03:33.630Z,1018.9
2017-03-26T01:04:36.116Z,1018.9
2017-03-26T01:05:37.945Z,1018.9
2017-03-26T01:06:39.761Z,1018.8
2017-03-26T01:07:41.901Z,1018.8
2017-03-26T01:08:43.717Z,1018.9
2017-03-26T01:09:45.878Z,1018.8
2017-03-26T01:10:47.686Z,1018.9
2017-03-26T01:11:49.496Z,1018.9
2017-03-26T01:12:51.664Z,1018.9
2017-03-26T01:13:53.529Z,1018.9
2017-03-26T01:14:55.664Z,1018.9
2017-03-26T01:15:57.482Z,1018.9
2017-03-26T01:16:59.302Z,1019
2017-03-26T01:18:01.125Z,1019
2017-03-26T01:19:03.272Z,1019
2017-03-26T01:20:05.450Z,1019
2017-03-26T01:21:07.261Z,1019
2017-03-26T01:22:09.075Z,1019
2017-03-26T01:23:11.224Z,1019
2017-03-26T01:24:13.029Z,1019
2017-03-26T01:25:14.848Z,1019
2017-03-26T01:26:16.654Z,1018.9
2017-03-26T01:27:18.473Z,1018.9
2017-03-26T01:28:20.270Z,1018.9
2017-03-26T01:29:22.097Z,1018.9
2017-03-26T01:30:24.247Z,1018.9
2017-03-26T01:31:26.067Z,1019
2017-03-26T01:32:27.880Z,1019
2017-03-26T01:33:29.686Z,1019
2017-03-26T01:34:31.838Z,1019
2017-03-26T01:35:33.652Z,1019
2017-03-26T01:36:35.450Z,1019
2017-03-26T01:37:37.267Z,1019
2017-03-26T01:38:39.099Z,1019
2017-03-26T01:39:41.260Z,1019
2017-03-26T01:40:43.084Z,1019
2017-03-26T01:41:45.244Z,1019
2017-03-26T01:42:47.048Z,1019
2017-03-26T01:43:48.925Z,1018.9
2017-03-26T01:44:51.082Z,1018.9
2017-03-26T01:45:53.227Z,1019
2017-03-26T01:46:55.054Z,1019
2017-03-26T01:47:57.547Z,1019
2017-03-26T01:48:59.766Z,1019
2017-03-26T01:50:01.563Z,1019
2017-03-26T01:51:03.389Z,1018.9
2017-03-26T01:52:05.196Z,1018.9
2017-03-26T01:53:07.008Z,1018.9
2017-03-26T01:54:09.175Z,1018.9
2017-03-26T01:55:11.338Z,1018.9
2017-03-26T01:56:13.479Z,1018.9
2017-03-26T01:57:15.310Z,1018.9
2017-03-26T01:58:17.129Z,1018.9
2017-03-26T01:59:19.294Z,1018.9
2017-03-26T02:00:21.111Z,1018.9
2017-03-26T02:01:22.914Z,1018.8
2017-03-26T02:02:24.741Z,1018.8
2017-03-26T02:03:26.571Z,1018.8
2017-03-26T02:04:28.737Z,1018.8
2017-03-26T02:05:30.540Z,1018.8
2017-03-26T02:06:32.344Z,1018.8
2017-03-26T02:07:34.159Z,1018.9
2017-03-26T02:08:36.317Z,1018.9
2017-03-26T02:09:38.465Z,1018.9
2017-03-26T02:10:40.290Z,1018.9
2017-03-26T02:11:42.100Z,1018.9
2017-03-26T02:12:44.266Z,1018.9
2017-03-26T02:13:46.411Z,1018.9
2017-03-26T02:14:48.558Z,1018.9
2017-03-26T02:15:50.368Z,1018.9
2017-03-26T02:16:52.181Z,1018.8
2017-03-26T02:17:53.984Z,1018.8
2017-03-26T02:18:55.805Z,1018.8
2017-03-26T02:19:57.625Z,1018.8
2017-03-26T02:20:59.435Z,1018.8
2017-03-26T02:22:01.254Z,1018.8
2017-03-26T02:23:03.065Z,1018.8
2017-03-26T02:24:05.228Z,1018.7
2017-03-26T02:25:07.045Z,1018.7
2017-03-26T02:26:09.205Z,1018.7
2017-03-26T02:27:11.012Z,1018.8
2017-03-26T02:28:13.163Z,1018.7
2017-03-26T02:29:14.983Z,1018.8
2017-03-26T02:30:17.481Z,1018.8
2017-03-26T02:31:19.273Z,1018.8
2017-03-26T02:32:21.091Z,1018.8
2017-03-26T02:33:22.905Z,1018.8
2017-03-26T02:34:24.727Z,1018.8
2017-03-26T02:35:26.528Z,1018.7
2017-03-26T02:36:28.719Z,1018.7
2017-03-26T02:37:30.521Z,1018.7
2017-03-26T02:38:32.342Z,1018.8
2017-03-26T02:39:34.849Z,1018.8
2017-03-26T02:40:37.006Z,1018.8
2017-03-26T02:41:38.827Z,1018.8
2017-03-26T02:42:40.631Z,1018.8
2017-03-26T02:43:42.452Z,1018.8
2017-03-26T02:44:44.655Z,1018.8
2017-03-26T02:45:46.465Z,1018.8
2017-03-26T02:46:48.270Z,1018.8
2017-03-26T02:47:50.097Z,1018.8
2017-03-26T02:48:51.922Z,1018.8
2017-03-26T02:49:53.746Z,1018.8
2017-03-26T02:50:56.226Z,1018.8
2017-03-26T02:51:58.048Z,1018.7
2017-03-26T02:52:59.858Z,1018.7
2017-03-26T02:54:01.674Z,1018.7
2017-03-26T02:55:04.167Z,1018.7
2017-03-26T02:56:05.978Z,1018.7
2017-03-26T02:57:07.784Z,1018.7
2017-03-26T02:58:09.955Z,1018.7
2017-03-26T02:59:11.803Z,1018.7
2017-03-26T03:00:13.623Z,1018.7
2017-03-26T03:01:15.448Z,1018.7
2017-03-26T03:02:17.271Z,1018.7
2017-03-26T03:03:19.434Z,1018.7
2017-03-26T03:04:21.234Z,1018.7
2017-03-26T03:05:23.060Z,1018.7
2017-03-26T03:06:24.875Z,1018.7
2017-03-26T03:07:26.677Z,1018.7
2017-03-26T03:08:28.822Z,1018.6
2017-03-26T03:09:31.335Z,1018.7
2017-03-26T03:10:33.519Z,1018.7
2017-03-26T03:11:35.340Z,1018.7
2017-03-26T03:12:37.479Z,1018.7
2017-03-26T03:13:39.304Z,1018.7
2017-03-26T03:14:41.116Z,1018.6
2017-03-26T03:15:42.931Z,1018.6
2017-03-26T03:16:44.743Z,1018.7
2017-03-26T03:17:46.552Z,1018.7
2017-03-26T03:18:48.368Z,1018.7
2017-03-26T03:19:50.518Z,1018.7
2017-03-26T03:20:52.342Z,1018.7
2017-03-26T03:21:54.159Z,1018.7
2017-03-26T03:22:55.978Z,1018.7
2017-03-26T03:23:58.793Z,1018.7
2017-03-26T03:25:00.951Z,1018.7
2017-03-26T03:26:02.763Z,1018.7
2017-03-26T03:27:04.912Z,1018.7
2017-03-26T03:28:07.411Z,1018.7
2017-03-26T03:29:09.220Z,1018.7
2017-03-26T03:30:11.365Z,1018.7
2017-03-26T03:31:13.180Z,1018.8
2017-03-26T03:32:14.990Z,1018.7
2017-03-26T03:33:16.809Z,1018.8
2017-03-26T03:34:18.966Z,1018.7
2017-03-26T03:35:21.126Z,1018.7
2017-03-26T03:36:22.927Z,1018.7
2017-03-26T03:37:24.738Z,1018.7
2017-03-26T03:38:26.883Z,1018.7
2017-03-26T03:39:29.096Z,1018.7
2017-03-26T03:40:30.920Z,1018.7
2017-03-26T03:41:32.723Z,1018.7
2017-03-26T03:42:34.917Z,1018.7
2017-03-26T03:43:36.748Z,1018.7
2017-03-26T03:44:39.263Z,1018.8
2017-03-26T03:45:41.058Z,1018.7
2017-03-26T03:46:42.880Z,1018.8
2017-03-26T03:47:44.690Z,1018.7
2017-03-26T03:48:46.836Z,1018.6
2017-03-26T03:49:49.342Z,1018.6
2017-03-26T03:50:51.833Z,1018.6
2017-03-26T03:51:53.973Z,1018.6
2017-03-26T03:52:55.796Z,1018.6
2017-03-26T03:53:57.609Z,1018.6
2017-03-26T03:54:59.444Z,1018.6
2017-03-26T03:56:01.944Z,1018.6
2017-03-26T03:57:04.116Z,1018.6
2017-03-26T03:58:05.918Z,1018.6
2017-03-26T03:59:07.726Z,1018.6
2017-03-26T04:00:09.881Z,1018.6
2017-03-26T04:01:12.024Z,1018.6
2017-03-26T04:02:13.844Z,1018.5
2017-03-26T04:03:15.656Z,1018.5
2017-03-26T04:04:17.475Z,1018.5
2017-03-26T04:05:19.620Z,1018.5
2017-03-26T04:06:21.446Z,1018.5
2017-03-26T04:07:23.264Z,1018.5
2017-03-26T04:08:25.076Z,1018.5
2017-03-26T04:09:27.247Z,1018.5
2017-03-26T04:10:29.727Z,1018.6
2017-03-26T04:11:31.537Z,1018.6
2017-03-26T04:12:33.341Z,1018.6
2017-03-26T04:13:35.516Z,1018.6
2017-03-26T04:14:37.323Z,1018.6
2017-03-26T04:15:39.474Z,1018.6
2017-03-26T04:16:41.636Z,1018.6
2017-03-26T04:17:43.443Z,1018.6
2017-03-26T04:18:45.604Z,1018.6
2017-03-26T04:19:47.754Z,1018.6
2017-03-26T04:20:49.555Z,1018.6
2017-03-26T04:21:51.385Z,1018.6
2017-03-26T04:22:53.532Z,1018.6
2017-03-26T04:23:55.707Z,1018.6
2017-03-26T04:24:57.516Z,1018.6
2017-03-26T04:25:59.686Z,1018.6
2017-03-26T04:27:01.492Z,1018.6
2017-03-26T04:28:03.314Z,1018.6
2017-03-26T04:29:05.127Z,1018.7
2017-03-26T04:30:06.932Z,1018.6
2017-03-26T04:31:08.754Z,1018.6
2017-03-26T04:32:10.601Z,1018.6
2017-03-26T04:33:12.463Z,1018.6
2017-03-26T04:34:14.724Z,1018.6
2017-03-26T04:35:16.564Z,1018.6
2017-03-26T04:36:18.433Z,1018.5
2017-03-26T04:37:20.694Z,1018.5
2017-03-26T04:38:22.551Z,1018.6
2017-03-26T04:39:24.435Z,1018.6
2017-03-26T04:40:26.607Z,1018.7
2017-03-26T04:41:28.458Z,1018.7
2017-03-26T04:42:30.293Z,1018.7
2017-03-26T04:43:32.195Z,1018.7
2017-03-26T04:44:34.004Z,1018.7
2017-03-26T04:45:35.854Z,1018.7
2017-03-26T04:46:37.724Z,1018.7
2017-03-26T04:47:39.652Z,1018.7
2017-03-26T04:48:41.534Z,1018.7
2017-03-26T04:49:43.731Z,1018.7
2017-03-26T04:50:45.565Z,1018.6
2017-03-26T04:51:47.382Z,1018.7
2017-03-26T04:52:49.580Z,1018.6
2017-03-26T04:53:51.419Z,1018.6
2017-03-26T04:54:53.252Z,1018.6
2017-03-26T04:55:55.108Z,1018.7
2017-03-26T04:56:56.955Z,1018.7
2017-03-26T04:57:58.808Z,1018.7
2017-03-26T04:59:01.189Z,1018.6
2017-03-26T05:00:03.355Z,1018.6
2017-03-26T05:01:05.199Z,1018.6
2017-03-26T05:02:07.052Z,1018.6
2017-03-26T05:03:09.259Z,1018.5
2017-03-26T05:04:11.423Z,1018.5
2017-03-26T05:05:14.070Z,1018.6
2017-03-26T05:06:15.880Z,1018.6
2017-03-26T05:07:17.796Z,1018.6
2017-03-26T05:08:19.670Z,1018.6
2017-03-26T05:09:21.534Z,1018.6
2017-03-26T05:10:23.755Z,1018.6
2017-03-26T05:11:25.594Z,1018.7
2017-03-26T05:12:27.419Z,1018.7
2017-03-26T05:13:29.224Z,1018.7
2017-03-26T05:14:31.128Z,1018.7
2017-03-26T05:15:33.068Z,1018.7
2017-03-26T05:16:35.248Z,1018.7
2017-03-26T05:17:37.057Z,1018.8
2017-03-26T05:18:39.298Z,1018.7
2017-03-26T05:19:41.111Z,1018.8
2017-03-26T05:20:42.933Z,1018.8
2017-03-26T05:21:44.758Z,1018.8
2017-03-26T05:22:46.659Z,1018.8
2017-03-26T05:23:49.198Z,1018.8
2017-03-26T05:24:51.721Z,1018.8
2017-03-26T05:25:53.936Z,1018.8
2017-03-26T05:26:55.747Z,1018.8
2017-03-26T05:27:57.583Z,1018.8
2017-03-26T05:29:00.475Z,1018.8
2017-03-26T05:30:02.648Z,1018.8
2017-03-26T05:31:04.467Z,1018.8
2017-03-26T05:32:06.369Z,1018.9
2017-03-26T05:33:08.249Z,1018.9
2017-03-26T05:34:10.121Z,1018.9
2017-03-26T05:35:11.979Z,1018.9
2017-03-26T05:36:13.863Z,1019
2017-03-26T05:37:15.684Z,1019
2017-03-26T05:38:17.623Z,1019
2017-03-26T05:39:19.485Z,1019
2017-03-26T05:40:21.714Z,1019
2017-03-26T05:41:23.534Z,1019.1
2017-03-26T05:42:25.460Z,1019.1
2017-03-26T05:43:27.393Z,1019
2017-03-26T05:44:29.242Z,1019
2017-03-26T05:45:31.074Z,1019.1
2017-03-26T05:46:32.902Z,1019.1
2017-03-26T05:47:34.727Z,1019.1
2017-03-26T05:48:36.631Z,1019.1
2017-03-26T05:49:38.462Z,1019.1
2017-03-26T05:50:40.282Z,1019.1
2017-03-26T05:51:42.792Z,1019.1
2017-03-26T05:52:44.791Z,1019.1
2017-03-26T05:53:46.952Z,1019.1
2017-03-26T05:54:49.127Z,1019.1
2017-03-26T05:55:50.990Z,1019.1
2017-03-26T05:56:52.870Z,1019.1
2017-03-26T05:57:55.097Z,1019.1
2017-03-26T05:58:57.264Z,1019.1
2017-03-26T05:59:59.098Z,1019.2
2017-03-26T06:01:00.915Z,1019.2
2017-03-26T06:02:02.734Z,1019.2
2017-03-26T06:03:04.573Z,1019.2
2017-03-26T06:04:06.404Z,1019.2
2017-03-26T06:05:08.580Z,1019.2
2017-03-26T06:06:10.448Z,1019.2
2017-03-26T06:07:12.631Z,1019.3
2017-03-26T06:08:14.469Z,1019.2
2017-03-26T06:09:16.402Z,1019.3
2017-03-26T06:10:18.254Z,1019.3
2017-03-26T06:11:20.072Z,1019.3
2017-03-26T06:12:21.926Z,1019.3
2017-03-26T06:13:24.142Z,1019.3
2017-03-26T06:14:26.083Z,1019.3
2017-03-26T06:15:28.229Z,1019.3
2017-03-26T06:16:30.059Z,1019.3
2017-03-26T06:17:31.859Z,1019.4
2017-03-26T06:18:33.720Z,1019.4
2017-03-26T06:19:35.528Z,1019.4
2017-03-26T06:20:37.394Z,1019.4
2017-03-26T06:21:39.204Z,1019.4
2017-03-26T06:22:41.012Z,1019.4
2017-03-26T06:23:42.836Z,1019.5
2017-03-26T06:24:44.644Z,1019.5
2017-03-26T06:25:46.794Z,1019.5
2017-03-26T06:26:48.598Z,1019.4
2017-03-26T06:27:50.410Z,1019.5
2017-03-26T06:28:52.229Z,1019.5
2017-03-26T06:29:54.721Z,1019.6
2017-03-26T06:30:56.523Z,1019.6
2017-03-26T06:31:58.342Z,1019.6
2017-03-26T06:33:00.146Z,1019.6
2017-03-26T06:34:01.965Z,1019.5
2017-03-26T06:35:03.777Z,1019.6
2017-03-26T06:36:05.920Z,1019.6
2017-03-26T06:37:07.736Z,1019.6
2017-03-26T06:38:09.560Z,1019.7
2017-03-26T06:39:11.370Z,1019.7
2017-03-26T06:40:13.544Z,1019.7
2017-03-26T06:41:15.366Z,1019.7
2017-03-26T06:42:17.522Z,1019.7
2017-03-26T06:43:19.344Z,1019.7
2017-03-26T06:44:21.155Z,1019.7
2017-03-26T06:45:22.977Z,1019.7
2017-03-26T06:46:24.789Z,1019.8
2017-03-26T06:47:26.597Z,1019.8
2017-03-26T06:48:28.404Z,1019.8
2017-03-26T06:49:31.246Z,1019.8
2017-03-26T06:50:33.063Z,1019.8
2017-03-26T06:51:35.210Z,1019.8
2017-03-26T06:52:37.410Z,1019.8
2017-03-26T06:53:39.554Z,1019.9
2017-03-26T06:54:41.377Z,1019.9
2017-03-26T06:55:43.188Z,1019.9
2017-03-26T06:56:44.997Z,1019.9
2017-03-26T06:57:47.147Z,1019.8
2017-03-26T06:58:49.642Z,1019.8
2017-03-26T06:59:51.466Z,1019.8
2017-03-26T07:00:53.955Z,1019.9
2017-03-26T07:01:55.774Z,1019.9
2017-03-26T07:02:57.591Z,1019.9
2017-03-26T07:03:59.745Z,1019.9
2017-03-26T07:05:01.551Z,1019.9
2017-03-26T07:06:03.358Z,1019.9
2017-03-26T07:07:05.184Z,1019.9
2017-03-26T07:08:06.986Z,1019.8
2017-03-26T07:09:09.142Z,1019.8
2017-03-26T07:10:10.954Z,1019.8
2017-03-26T07:11:12.783Z,1019.8
2017-03-26T07:12:14.597Z,1019.8
2017-03-26T07:13:16.751Z,1019.8
2017-03-26T07:14:18.908Z,1019.8
2017-03-26T07:15:21.092Z,1019.7
2017-03-26T07:16:22.914Z,1019.8
2017-03-26T07:17:24.721Z,1019.7
2017-03-26T07:18:26.524Z,1019.8
2017-03-26T07:19:28.671Z,1019.7
2017-03-26T07:20:31.176Z,1019.8
2017-03-26T07:21:32.990Z,1019.7
2017-03-26T07:22:34.803Z,1019.7
2017-03-26T07:23:36.622Z,1019.7
2017-03-26T07:24:38.447Z,1019.7
2017-03-26T07:25:40.589Z,1019.7
2017-03-26T07:26:42.737Z,1019.7
2017-03-26T07:27:44.546Z,1019.7
2017-03-26T07:28:46.713Z,1019.8
2017-03-26T07:29:48.525Z,1019.8
2017-03-26T07:30:50.343Z,1019.8
2017-03-26T07:31:52.149Z,1019.8
2017-03-26T07:32:53.967Z,1019.8
2017-03-26T07:33:55.785Z,1019.8
2017-03-26T07:34:57.603Z,1019.8
2017-03-26T07:35:59.743Z,1019.9
2017-03-26T07:37:01.581Z,1019.8
2017-03-26T07:38:03.399Z,1019.8
2017-03-26T07:39:05.220Z,1019.8
2017-03-26T07:40:07.024Z,1019.9
2017-03-26T07:41:08.843Z,1019.9
2017-03-26T07:42:10.664Z,1019.9
2017-03-26T07:43:12.815Z,1019.9
2017-03-26T07:44:14.695Z,1019.8
2017-03-26T07:45:16.844Z,1019.8
2017-03-26T07:46:18.662Z,1019.8
2017-03-26T07:47:20.479Z,1019.8
2017-03-26T07:48:22.288Z,1019.8
2017-03-26T07:49:24.111Z,1019.8
2017-03-26T07:50:25.929Z,1019.9
2017-03-26T07:51:27.739Z,1019.9
2017-03-26T07:52:29.892Z,1019.9
2017-03-26T07:53:31.727Z,1019.9
2017-03-26T07:54:33.552Z,1019.9
2017-03-26T07:55:35.699Z,1019.9
2017-03-26T07:56:38.214Z,1019.9
2017-03-26T07:57:40.028Z,1020
2017-03-26T07:58:42.190Z,1020
2017-03-26T07:59:44.012Z,1020
2017-03-26T08:00:45.822Z,1020
2017-03-26T08:01:47.649Z,1020
2017-03-26T08:02:49.467Z,1019.9
2017-03-26T08:03:51.290Z,1019.9
2017-03-26T08:04:53.426Z,1019.9
2017-03-26T08:05:55.252Z,1019.9
2017-03-26T08:06:57.064Z,1019.9
2017-03-26T08:07:58.903Z,1019.9
2017-03-26T08:09:00.724Z,1019.9
2017-03-26T08:10:02.885Z,1020
2017-03-26T08:11:05.035Z,1020
2017-03-26T08:12:06.850Z,1019.9
2017-03-26T08:13:08.662Z,1020
2017-03-26T08:14:10.475Z,1020
2017-03-26T08:15:12.300Z,1020.1
2017-03-26T08:16:14.113Z,1020.1
2017-03-26T08:17:15.921Z,1020.1
2017-03-26T08:18:18.085Z,1020.1
2017-03-26T08:19:20.581Z,1020.1
2017-03-26T08:20:22.407Z,1020.1
2017-03-26T08:21:24.572Z,1020.1
2017-03-26T08:22:26.395Z,1020.1
2017-03-26T08:23:28.220Z,1020.1
2017-03-26T08:24:30.049Z,1020.1
2017-03-26T08:25:31.876Z,1020.1
2017-03-26T08:26:33.676Z,1020.1
2017-03-26T08:27:35.513Z,1020.1
2017-03-26T08:28:37.330Z,1020.1
2017-03-26T08:29:39.483Z,1020.1
2017-03-26T08:30:41.310Z,1020.1
2017-03-26T08:31:43.121Z,1020.2
2017-03-26T08:32:44.942Z,1020.2
2017-03-26T08:33:46.764Z,1020.2
2017-03-26T08:34:48.597Z,1020.2
2017-03-26T08:35:50.408Z,1020.2
2017-03-26T08:36:52.233Z,1020.2
2017-03-26T08:37:54.050Z,1020.2
2017-03-26T08:38:55.885Z,1020.2
2017-03-26T08:39:58.050Z,1020.2
2017-03-26T08:40:59.882Z,1020.2
2017-03-26T08:42:01.702Z,1020.2
2017-03-26T08:43:03.527Z,1020.2
2017-03-26T08:44:05.695Z,1020.2
2017-03-26T08:45:07.530Z,1020.2
2017-03-26T08:46:09.345Z,1020.1
2017-03-26T08:47:11.214Z,1020.1
2017-03-26T08:48:13.056Z,1020.1
2017-03-26T08:49:14.880Z,1020.1
2017-03-26T08:50:17.058Z,1020.1
2017-03-26T08:51:18.883Z,1020.1
2017-03-26T08:52:21.091Z,1020.2
2017-03-26T08:53:22.932Z,1020.2
2017-03-26T08:54:24.757Z,1020.2
2017-03-26T08:57:39.301Z,1020.2
2017-03-26T08:58:41.537Z,1020.2
2017-03-26T08:59:43.861Z,1020.2
2017-03-26T09:00:45.850Z,1020.1
2017-03-26T09:01:47.746Z,1020.2
2017-03-26T09:02:49.641Z,1020.2
2017-03-26T09:03:52.015Z,1020.2
2017-03-26T09:04:53.977Z,1020.2
2017-03-26T09:05:56.257Z,1020.2
2017-03-26T09:06:58.500Z,1020.2
2017-03-26T09:08:00.427Z,1020.3
2017-03-26T09:09:02.376Z,1020.2
2017-03-26T09:10:04.361Z,1020.2
2017-03-26T09:11:06.321Z,1020.2
2017-03-26T09:12:08.259Z,1020.2
2017-03-26T09:13:10.289Z,1020.2
2017-03-26T09:14:12.255Z,1020.2
2017-03-26T09:15:14.163Z,1020.2
2017-03-26T09:16:16.108Z,1020.2
2017-03-26T09:17:18.072Z,1020.2
2017-03-26T09:18:20.325Z,1020.1
2017-03-26T09:19:22.292Z,1020.1
2017-03-26T09:20:24.246Z,1020.2
2017-03-26T09:21:26.214Z,1020.2
2017-03-26T09:22:28.096Z,1020.2
2017-03-26T09:23:29.995Z,1020.1
2017-03-26T09:24:31.880Z,1020.1
2017-03-26T09:25:33.999Z,1020.2
2017-03-26T09:26:35.897Z,1020.1
2017-03-26T09:27:37.808Z,1020.2
2017-03-26T09:28:40.029Z,1020.2
2017-03-26T09:29:41.956Z,1020.2
2017-03-26T09:30:44.188Z,1020.2
2017-03-26T09:31:46.061Z,1020.2
2017-03-26T09:32:47.944Z,1020.1
2017-03-26T09:33:50.001Z,1020.1
2017-03-26T09:34:52.221Z,1020.1
2017-03-26T09:35:54.484Z,1020.1
2017-03-26T09:36:56.426Z,1020.2
2017-03-26T09:37:58.539Z,1020.2
2017-03-26T09:39:00.763Z,1020.1
2017-03-26T09:40:03.169Z,1020.1
2017-03-26T09:41:05.050Z,1020.1
2017-03-26T09:42:06.953Z,1020.1
2017-03-26T09:43:08.853Z,1020.1
2017-03-26T09:44:10.798Z,1020.1
2017-03-26T09:45:13.033Z,1020.1
2017-03-26T09:46:15.084Z,1020.1
2017-03-26T09:47:16.987Z,1020
2017-03-26T09:48:18.978Z,1020.1
2017-03-26T09:49:21.753Z,1020.1
2017-03-26T09:50:23.990Z,1020.1
2017-03-26T09:51:26.021Z,1020.1
2017-03-26T09:52:28.180Z,1020
2017-03-26T09:53:30.408Z,1020
2017-03-26T09:54:32.505Z,1020
2017-03-26T09:55:34.411Z,1020
2017-03-26T09:56:36.296Z,1020
2017-03-26T09:57:38.472Z,1020
2017-03-26T09:58:40.481Z,1019.9
2017-03-26T09:59:42.373Z,1020
2017-03-26T10:00:44.691Z,1020
2017-03-26T10:01:46.580Z,1020
2017-03-26T10:02:48.478Z,1020.1
2017-03-26T10:03:50.658Z,1020.1
2017-03-26T10:04:52.554Z,1020.2
2017-03-26T10:05:54.448Z,1020.3
2017-03-26T10:06:56.689Z,1020.3
2017-03-26T10:07:58.591Z,1020.3
2017-03-26T10:09:00.847Z,1020.3
2017-03-26T10:10:04.095Z,1020.3
2017-03-26T10:11:06.090Z,1020.3
2017-03-26T10:12:08.683Z,1020.3
2017-03-26T10:13:10.580Z,1020.4
2017-03-26T10:14:12.468Z,1020.4
2017-03-26T10:15:14.695Z,1020.4
2017-03-26T10:16:16.628Z,1020.4
2017-03-26T10:17:18.577Z,1020.5
2017-03-26T10:18:20.468Z,1020.5
2017-03-26T10:19:22.681Z,1020.5
2017-03-26T10:20:25.043Z,1020.5
2017-03-26T10:21:27.000Z,1020.5
2017-03-26T10:22:28.889Z,1020.5
2017-03-26T10:23:30.776Z,1020.6
2017-03-26T10:24:32.666Z,1020.5
2017-03-26T10:25:34.547Z,1020.5
2017-03-26T10:26:36.603Z,1020.4
2017-03-26T10:27:38.572Z,1020.4
2017-03-26T10:28:40.807Z,1020.4
2017-03-26T10:29:43.055Z,1020.4
2017-03-26T10:30:44.972Z,1020.4
2017-03-26T10:31:46.920Z,1020.4
2017-03-26T10:32:48.811Z,1020.4
2017-03-26T10:33:50.701Z,1020.5
2017-03-26T10:34:52.590Z,1020.5
2017-03-26T10:35:55.166Z,1020.5
2017-03-26T10:36:57.048Z,1020.5
2017-03-26T10:37:59.046Z,1020.4
2017-03-26T10:39:01.607Z,1020.5
2017-03-26T10:40:03.829Z,1020.4
2017-03-26T10:41:05.706Z,1020.4
2017-03-26T10:42:07.922Z,1020.4
2017-03-26T10:43:10.135Z,1020.4
2017-03-26T10:44:12.023Z,1020.4
2017-03-26T10:45:14.257Z,1020.4
2017-03-26T10:46:16.550Z,1020.4
2017-03-26T10:47:18.433Z,1020.4
2017-03-26T10:48:20.305Z,1020.4
2017-03-26T10:49:22.549Z,1020.3
2017-03-26T10:50:24.835Z,1020.4
2017-03-26T10:51:26.731Z,1020.4
2017-03-26T10:52:28.790Z,1020.4
2017-03-26T10:53:30.666Z,1020.4
2017-03-26T10:54:32.536Z,1020.4
2017-03-26T10:55:34.892Z,1020.4
2017-03-26T10:56:36.762Z,1020.3
2017-03-26T10:57:38.642Z,1020.3
2017-03-26T10:58:40.783Z,1020.3
2017-03-26T10:59:42.668Z,1020.3
2017-03-26T11:00:44.555Z,1020.3
2017-03-26T11:01:46.433Z,1020.3
2017-03-26T11:02:48.985Z,1020.3
2017-03-26T11:03:50.866Z,1020.3
2017-03-26T11:04:52.842Z,1020.3
2017-03-26T11:05:54.726Z,1020.3
2017-03-26T11:06:56.611Z,1020.3
2017-03-26T11:07:58.928Z,1020.3
2017-03-26T11:09:01.484Z,1020.3
2017-03-26T11:10:03.373Z,1020.2
2017-03-26T11:11:05.361Z,1020.2
2017-03-26T11:12:07.593Z,1020.2
2017-03-26T11:13:09.468Z,1020.2
2017-03-26T11:14:11.719Z,1020.3
2017-03-26T11:15:13.586Z,1020.2
2017-03-26T11:16:15.472Z,1020.3
2017-03-26T11:17:17.427Z,1020.3
2017-03-26T11:18:19.299Z,1020.3
2017-03-26T11:19:21.174Z,1020.2
2017-03-26T11:20:23.435Z,1020.2
2017-03-26T11:21:25.650Z,1020.2
2017-03-26T11:22:27.522Z,1020.2
2017-03-26T11:23:29.601Z,1020.2
2017-03-26T11:24:31.810Z,1020.2
2017-03-26T11:25:33.689Z,1020.2
2017-03-26T11:26:35.720Z,1020.2
2017-03-26T11:27:37.930Z,1020.2
2017-03-26T11:28:40.149Z,1020.1
2017-03-26T11:29:42.042Z,1020.1
2017-03-26T11:30:44.114Z,1020.2
2017-03-26T11:31:45.980Z,1020.2
2017-03-26T11:32:47.850Z,1020.2
2017-03-26T11:33:49.737Z,1020.2
2017-03-26T11:34:51.618Z,1020.2
2017-03-26T11:35:53.831Z,1020.1
2017-03-26T11:36:55.694Z,1020.1
2017-03-26T11:37:57.778Z,1020.2
2017-03-26T11:38:59.999Z,1020.1
2017-03-26T11:40:01.870Z,1020.2
2017-03-26T11:41:03.740Z,1020.1
2017-03-26T11:42:05.616Z,1020.1
2017-03-26T11:43:07.621Z,1020.1
2017-03-26T11:44:09.488Z,1020.1
2017-03-26T11:45:11.842Z,1020.1
2017-03-26T11:46:13.717Z,1020.1
2017-03-26T11:47:15.589Z,1020.1
2017-03-26T11:48:17.477Z,1020.1
2017-03-26T11:49:20.026Z,1020.2
2017-03-26T11:50:21.972Z,1020.2
2017-03-26T11:51:23.862Z,1020.2
2017-03-26T11:52:25.742Z,1020.1
2017-03-26T11:53:27.611Z,1020.2
2017-03-26T11:54:30.185Z,1020.1
2017-03-26T11:55:32.059Z,1020.1
2017-03-26T11:56:33.937Z,1020.1
2017-03-26T11:57:36.147Z,1020.1
2017-03-26T11:58:38.388Z,1020.1
2017-03-26T11:59:40.272Z,1020.1
2017-03-26T12:00:42.511Z,1020.1
2017-03-26T12:01:44.383Z,1020.2
2017-03-26T12:02:46.263Z,1020.2
2017-03-26T12:03:48.150Z,1020.3
2017-03-26T12:04:50.047Z,1020.2
2017-03-26T12:05:51.926Z,1020.3
2017-03-26T12:06:54.130Z,1020.3
2017-03-26T12:07:56.001Z,1020.2
2017-03-26T12:08:57.868Z,1020.2
2017-03-26T12:10:00.082Z,1020.2
2017-03-26T12:11:01.963Z,1020.2
2017-03-26T12:12:03.846Z,1020.2
2017-03-26T12:13:05.730Z,1020.2
2017-03-26T12:14:07.609Z,1020.2
2017-03-26T12:15:09.816Z,1020.1
2017-03-26T12:16:11.688Z,1020.2
2017-03-26T12:17:13.895Z,1020.1
2017-03-26T12:18:15.773Z,1020.1
2017-03-26T12:19:17.983Z,1020.1
2017-03-26T12:20:19.857Z,1020.1
2017-03-26T12:21:21.724Z,1020.1
2017-03-26T12:22:23.592Z,1020.1
2017-03-26T12:23:25.478Z,1020.1
2017-03-26T12:24:28.055Z,1020.2
2017-03-26T12:25:29.941Z,1020.1
2017-03-26T12:26:31.871Z,1020.1
2017-03-26T12:27:33.741Z,1020.1
2017-03-26T12:28:35.620Z,1020.1
2017-03-26T12:29:37.836Z,1020.1
2017-03-26T12:30:39.789Z,1020.1
2017-03-26T12:31:42.002Z,1020.1
2017-03-26T12:32:43.874Z,1020.1
2017-03-26T12:33:45.766Z,1020.1
2017-03-26T12:34:47.636Z,1020.1
2017-03-26T12:35:49.559Z,1020.1
2017-03-26T12:36:51.433Z,1020.1
2017-03-26T12:37:53.313Z,1020
2017-03-26T12:38:55.877Z,1020
2017-03-26T12:39:57.753Z,1020
2017-03-26T12:40:59.637Z,1020
2017-03-26T12:42:01.509Z,1020
2017-03-26T12:43:03.755Z,1019.9
2017-03-26T12:44:05.968Z,1019.9
2017-03-26T12:45:07.898Z,1019.9
2017-03-26T12:46:09.775Z,1019.9
2017-03-26T12:47:11.998Z,1019.9
2017-03-26T12:48:13.871Z,1019.9
2017-03-26T12:49:15.750Z,1019.8
2017-03-26T12:50:18.318Z,1019.8
2017-03-26T12:51:20.189Z,1019.8
2017-03-26T12:52:22.058Z,1019.8
2017-03-26T12:53:23.938Z,1019.8
2017-03-26T12:54:26.501Z,1019.8
2017-03-26T12:55:28.382Z,1019.8
2017-03-26T12:56:30.267Z,1019.8
2017-03-26T12:57:32.183Z,1019.7
2017-03-26T12:58:34.060Z,1019.7
2017-03-26T12:59:35.937Z,1019.7